createdAt,value
2017-07-19T00:02:19.311Z,9.60
2017-07-19T00:04:46.826Z,9.17
2017-07-19T00:07:14.383Z,14.80
2017-07-19T00:09:41.972Z,15.73
2017-07-19T00:12:09.493Z,12.63
2017-07-19T00:14:37.092Z,11.27
2017-07-19T00:17:04.600Z,10.70
2017-07-19T00:19:32.211Z,9.07
2017-07-19T00:21:59.720Z,8.47
2017-07-19T00:24:27.267Z,10.97
2017-07-19T00:26:54.788Z,12.67
2017-07-19T00:29:22.338Z,12.83
2017-07-19T00:31:49.845Z,25.90
2017-07-19T00:34:17.385Z,9.27
2017-07-19T00:36:44.903Z,10.40
2017-07-19T00:39:12.494Z,9.33
2017-07-19T00:41:40.090Z,10.70
2017-07-19T00:44:07.655Z,9.60
2017-07-19T00:46:35.210Z,14.00
2017-07-19T00:49:02.757Z,11.93
2017-07-19T00:51:30.272Z,13.33
2017-07-19T00:53:57.818Z,13.37
2017-07-19T00:56:25.341Z,7.87
2017-07-19T00:58:52.878Z,7.80
2017-07-19T01:01:20.442Z,8.17
2017-07-19T01:03:47.952Z,9.00
2017-07-19T01:06:15.522Z,11.50
2017-07-19T01:08:43.036Z,11.20
2017-07-19T01:11:10.577Z,16.53
2017-07-19T01:13:38.106Z,11.20
2017-07-19T01:16:05.725Z,11.87
2017-07-19T01:18:33.242Z,8.17
2017-07-19T01:21:00.843Z,6.97
2017-07-19T01:23:28.364Z,11.90
2017-07-19T01:25:55.916Z,6.73
2017-07-19T01:28:23.432Z,17.00
2017-07-19T01:30:51.082Z,14.10
2017-07-19T01:33:18.652Z,8.93
2017-07-19T01:35:46.215Z,19.73
2017-07-19T01:38:13.730Z,10.00
2017-07-19T01:40:41.424Z,14.90
2017-07-19T01:43:08.932Z,19.93
2017-07-19T01:45:36.474Z,8.03
2017-07-19T01:48:03.993Z,18.57
2017-07-19T01:50:31.506Z,14.37
2017-07-19T01:52:59.123Z,11.23
2017-07-19T01:55:26.640Z,13.80
2017-07-19T01:57:54.194Z,10.53
2017-07-19T02:00:21.710Z,9.60
2017-07-19T02:02:49.258Z,16.97
2017-07-19T02:05:16.774Z,7.43
2017-07-19T02:07:44.324Z,18.53
2017-07-19T02:10:11.843Z,10.40
2017-07-19T02:12:39.385Z,9.83
2017-07-19T02:15:06.896Z,14.07
2017-07-19T02:17:34.442Z,12.73
2017-07-19T02:20:01.951Z,10.43
2017-07-19T02:22:29.493Z,21.00
2017-07-19T02:24:57.086Z,9.97
2017-07-19T02:27:24.635Z,15.30
2017-07-19T02:29:54.212Z,7.13
2017-07-19T02:32:21.838Z,9.77
2017-07-19T02:34:49.366Z,13.37
2017-07-19T02:37:16.944Z,12.83
2017-07-19T02:39:44.466Z,13.30
2017-07-19T02:42:11.985Z,7.53
2017-07-19T02:44:39.535Z,12.90
2017-07-19T02:47:07.070Z,12.33
2017-07-19T02:49:34.630Z,9.47
2017-07-19T02:52:02.178Z,15.90
2017-07-19T02:54:29.733Z,12.83
2017-07-19T02:56:57.363Z,6.90
2017-07-19T02:59:24.910Z,5.83
2017-07-19T03:01:52.415Z,6.00
2017-07-19T03:04:19.956Z,7.93
2017-07-19T03:06:47.481Z,8.30
2017-07-19T03:09:15.029Z,13.50
2017-07-19T03:11:42.538Z,4.90
2017-07-19T03:14:10.127Z,5.63
2017-07-19T03:16:37.647Z,14.20
2017-07-19T03:19:05.247Z,13.63
2017-07-19T03:21:32.807Z,7.67
2017-07-19T03:24:00.351Z,7.70
2017-07-19T03:26:27.861Z,8.53
2017-07-19T03:28:55.491Z,7.77
2017-07-19T03:31:23.035Z,13.47
2017-07-19T03:33:50.560Z,10.77
2017-07-19T03:36:18.116Z,25.47
2017-07-19T03:38:45.631Z,9.00
2017-07-19T03:41:13.185Z,10.20
2017-07-19T03:43:40.704Z,8.27
2017-07-19T03:46:08.255Z,9.13
2017-07-19T03:48:35.769Z,5.83
2017-07-19T03:51:03.332Z,6.80
2017-07-19T03:53:31.641Z,5.60
2017-07-19T03:55:59.189Z,11.83
2017-07-19T03:58:26.705Z,5.70
2017-07-19T04:00:54.254Z,10.87
2017-07-19T04:03:21.764Z,11.53
2017-07-19T04:05:49.327Z,8.50
2017-07-19T04:08:16.922Z,5.43
2017-07-19T04:10:44.471Z,5.40
2017-07-19T04:13:11.976Z,6.10
2017-07-19T04:15:39.530Z,7.13
2017-07-19T04:18:07.044Z,11.43
2017-07-19T04:20:34.559Z,7.10
2017-07-19T04:23:02.126Z,4.23
2017-07-19T04:25:29.661Z,9.50
2017-07-19T04:27:57.240Z,5.13
2017-07-19T04:30:24.753Z,7.00
2017-07-19T04:32:52.291Z,4.37
2017-07-19T04:35:19.797Z,7.17
2017-07-19T04:37:47.381Z,11.60
2017-07-19T04:40:14.950Z,4.50
2017-07-19T04:42:42.493Z,3.80
2017-07-19T04:45:10.057Z,7.10
2017-07-19T04:47:37.605Z,4.27
2017-07-19T04:50:05.112Z,5.40
2017-07-19T04:52:32.657Z,3.53
2017-07-19T04:55:00.184Z,4.53
2017-07-19T04:57:27.752Z,10.33
2017-07-19T04:59:55.261Z,5.63
2017-07-19T05:02:22.874Z,9.53
2017-07-19T05:04:50.386Z,5.50
2017-07-19T05:07:17.899Z,10.40
2017-07-19T05:09:45.441Z,8.47
2017-07-19T05:12:12.959Z,19.27
2017-07-19T05:14:40.511Z,9.00
2017-07-19T05:17:08.031Z,11.90
2017-07-19T05:19:35.576Z,9.67
2017-07-19T05:22:03.092Z,8.23
2017-07-19T05:24:30.648Z,10.93
2017-07-19T05:26:58.249Z,13.20
2017-07-19T05:29:25.787Z,9.90
2017-07-19T05:31:53.299Z,22.60
2017-07-19T05:34:20.846Z,9.43
2017-07-19T05:36:48.357Z,5.80
2017-07-19T05:39:15.897Z,6.97
2017-07-19T05:41:43.525Z,8.20
2017-07-19T05:44:11.068Z,6.97
2017-07-19T05:46:38.575Z,6.50
2017-07-19T05:49:06.117Z,9.93
2017-07-19T05:51:33.625Z,7.70
2017-07-19T05:54:01.185Z,7.00
2017-07-19T05:56:28.703Z,9.53
2017-07-19T05:58:56.213Z,5.20
2017-07-19T06:01:23.799Z,7.60
2017-07-19T06:03:51.359Z,11.40
2017-07-19T06:06:18.908Z,13.40
2017-07-19T06:08:46.433Z,5.70
2017-07-19T06:11:13.986Z,13.80
2017-07-19T06:13:41.495Z,4.80
2017-07-19T06:16:09.049Z,6.37
2017-07-19T06:18:36.568Z,4.37
2017-07-19T06:21:04.109Z,5.40
2017-07-19T06:23:31.647Z,6.50
2017-07-19T06:25:59.194Z,7.17
2017-07-19T06:28:26.697Z,6.57
2017-07-19T06:30:54.244Z,7.07
2017-07-19T06:33:21.820Z,6.00
2017-07-19T06:35:49.365Z,3.67
2017-07-19T06:38:16.882Z,4.50
2017-07-19T06:40:44.424Z,5.30
2017-07-19T06:43:11.944Z,7.77
2017-07-19T06:45:39.452Z,4.17
2017-07-19T06:48:07.001Z,5.17
2017-07-19T06:50:34.515Z,10.23
2017-07-19T06:53:02.058Z,6.90
2017-07-19T06:55:29.652Z,6.67
2017-07-19T06:57:57.217Z,4.77
2017-07-19T07:00:24.738Z,6.53
2017-07-19T07:02:52.281Z,7.67
2017-07-19T07:05:19.786Z,4.33
2017-07-19T07:07:47.336Z,4.27
2017-07-19T07:10:14.844Z,4.67
2017-07-19T07:12:42.388Z,4.40
2017-07-19T07:15:09.900Z,8.90
2017-07-19T07:17:37.445Z,5.60
2017-07-19T07:20:04.957Z,8.70
2017-07-19T07:22:32.487Z,6.40
2017-07-19T07:24:59.999Z,6.70
2017-07-19T07:27:27.539Z,3.50
2017-07-19T07:29:55.053Z,7.07
2017-07-19T07:32:22.601Z,4.13
2017-07-19T07:34:50.114Z,3.83
2017-07-19T07:37:17.632Z,3.83
2017-07-19T07:39:45.218Z,3.77
2017-07-19T07:42:12.728Z,3.73
2017-07-19T07:44:40.268Z,4.60
2017-07-19T07:47:07.782Z,3.93
2017-07-19T07:49:35.331Z,5.57
2017-07-19T07:52:02.855Z,5.07
2017-07-19T07:54:30.402Z,5.10
2017-07-19T07:56:57.908Z,5.70
2017-07-19T07:59:25.451Z,3.47
2017-07-19T08:01:52.973Z,4.27
2017-07-19T08:04:20.512Z,3.40
2017-07-19T08:06:48.068Z,5.00
2017-07-19T08:09:15.605Z,3.50
2017-07-19T08:11:43.113Z,2.90
2017-07-19T08:14:10.657Z,2.60
2017-07-19T08:16:38.178Z,4.10
2017-07-19T08:19:05.729Z,4.90
2017-07-19T08:21:33.232Z,3.30
2017-07-19T08:24:00.773Z,4.33
2017-07-19T08:26:28.284Z,4.50
2017-07-19T08:28:55.793Z,3.70
2017-07-19T08:31:23.337Z,4.30
2017-07-19T08:33:50.844Z,4.77
2017-07-19T08:36:18.390Z,5.87
2017-07-19T08:38:45.899Z,3.40
2017-07-19T08:41:13.441Z,5.17
2017-07-19T08:43:40.954Z,3.77
2017-07-19T08:46:08.504Z,6.00
2017-07-19T08:48:36.022Z,4.60
2017-07-19T08:51:03.575Z,3.20
2017-07-19T08:53:31.822Z,4.30
2017-07-19T08:55:59.355Z,4.17
2017-07-19T08:58:26.870Z,7.20
2017-07-19T09:00:54.416Z,2.73
2017-07-19T09:03:21.927Z,3.03
2017-07-19T09:05:49.466Z,2.90
2017-07-19T09:08:16.977Z,3.43
2017-07-19T09:10:44.518Z,4.13
2017-07-19T09:13:12.024Z,2.80
2017-07-19T09:15:39.589Z,3.03
2017-07-19T09:18:07.943Z,4.03
2017-07-19T09:20:35.455Z,2.40
2017-07-19T09:23:03.102Z,3.47
2017-07-19T09:25:30.609Z,3.00
2017-07-19T09:27:58.123Z,3.67
2017-07-19T09:30:25.680Z,2.70
2017-07-19T09:32:53.195Z,3.23
2017-07-19T09:35:20.716Z,2.40
2017-07-19T09:37:48.275Z,2.43
2017-07-19T09:40:15.788Z,3.30
2017-07-19T09:42:43.300Z,7.73
2017-07-19T09:45:10.864Z,3.03
2017-07-19T09:47:38.369Z,2.83
2017-07-19T09:50:05.879Z,2.90
2017-07-19T09:52:33.446Z,2.60
2017-07-19T09:55:00.969Z,4.40
2017-07-19T09:57:28.483Z,2.53
2017-07-19T09:59:56.048Z,2.63
2017-07-19T10:02:23.559Z,4.40
2017-07-19T10:04:51.063Z,2.30
2017-07-19T10:07:18.625Z,4.90
2017-07-19T10:09:46.129Z,3.50
2017-07-19T10:12:13.640Z,2.90
2017-07-19T10:14:41.198Z,2.00
2017-07-19T10:17:08.711Z,3.20
2017-07-19T10:19:36.212Z,5.40
2017-07-19T10:22:03.780Z,2.87
2017-07-19T10:24:31.287Z,2.13
2017-07-19T10:26:58.796Z,1.90
2017-07-19T10:29:26.365Z,2.70
2017-07-19T10:31:53.877Z,2.50
2017-07-19T10:34:21.414Z,2.70
2017-07-19T10:36:48.976Z,2.60
2017-07-19T10:39:16.533Z,2.40
2017-07-19T10:41:44.050Z,2.83
2017-07-19T10:44:11.652Z,3.07
2017-07-19T10:46:39.173Z,2.70
2017-07-19T10:49:06.724Z,2.50
2017-07-19T10:51:34.239Z,2.47
2017-07-19T10:54:01.792Z,2.43
2017-07-19T10:56:29.336Z,1.93
2017-07-19T10:58:56.836Z,2.77
2017-07-19T11:01:24.381Z,2.70
2017-07-19T11:03:51.899Z,2.37
2017-07-19T11:06:19.404Z,1.80
2017-07-19T11:08:46.949Z,3.00
2017-07-19T11:11:14.455Z,2.13
2017-07-19T11:13:42.005Z,2.47
2017-07-19T11:16:09.526Z,2.13
2017-07-19T11:18:37.046Z,3.00
2017-07-19T11:21:04.642Z,2.20
2017-07-19T11:23:32.184Z,3.07
2017-07-19T11:25:59.736Z,2.47
2017-07-19T11:28:27.246Z,2.93
2017-07-19T11:30:54.780Z,1.83
2017-07-19T11:33:22.319Z,2.20
2017-07-19T11:35:49.838Z,2.03
2017-07-19T11:38:17.386Z,2.43
2017-07-19T11:40:44.900Z,2.47
2017-07-19T11:43:12.408Z,2.67
2017-07-19T11:45:39.956Z,2.00
2017-07-19T11:48:07.466Z,3.30
2017-07-19T11:50:35.053Z,2.20
2017-07-19T11:53:02.559Z,2.50
2017-07-19T11:55:30.077Z,2.30
2017-07-19T11:57:57.626Z,2.13
2017-07-19T12:00:25.139Z,2.27
2017-07-19T12:02:52.685Z,1.93
2017-07-19T12:05:20.206Z,2.37
2017-07-19T12:07:47.732Z,2.00
2017-07-19T12:10:15.276Z,2.87
2017-07-19T12:12:42.785Z,2.63
2017-07-19T12:15:10.352Z,2.27
2017-07-19T12:17:37.857Z,2.00
2017-07-19T12:20:05.372Z,2.63
2017-07-19T12:22:32.923Z,1.90
2017-07-19T12:25:00.437Z,3.53
2017-07-19T12:27:27.993Z,2.90
2017-07-19T12:29:55.505Z,2.47
2017-07-19T12:32:23.058Z,2.20
2017-07-19T12:34:50.612Z,3.50
2017-07-19T12:37:18.120Z,2.30
2017-07-19T12:39:45.680Z,2.10
2017-07-19T12:42:13.184Z,2.23
2017-07-19T12:44:40.692Z,2.70
2017-07-19T12:47:08.233Z,2.07
2017-07-19T12:49:35.747Z,2.47
2017-07-19T12:52:03.295Z,1.83
2017-07-19T12:54:30.809Z,1.90
2017-07-19T12:56:58.317Z,2.13
2017-07-19T12:59:25.856Z,3.63
2017-07-19T13:01:53.469Z,3.00
2017-07-19T13:04:21.043Z,2.27
2017-07-19T13:06:48.552Z,2.33
2017-07-19T13:09:16.057Z,2.43
2017-07-19T13:11:43.599Z,2.10
2017-07-19T13:14:11.110Z,2.20
2017-07-19T13:16:38.652Z,2.60
2017-07-19T13:19:06.158Z,2.33
2017-07-19T13:21:33.673Z,2.10
2017-07-19T13:24:01.219Z,2.30
2017-07-19T13:26:28.729Z,2.43
2017-07-19T13:28:56.291Z,3.70
2017-07-19T13:31:23.818Z,3.57
2017-07-19T13:33:51.331Z,2.23
2017-07-19T13:36:18.868Z,2.60
2017-07-19T13:38:46.386Z,5.63
2017-07-19T13:41:13.948Z,2.40
2017-07-19T13:43:41.460Z,2.10
2017-07-19T13:46:08.971Z,1.90
2017-07-19T13:48:36.509Z,2.60
2017-07-19T13:51:04.056Z,2.23
2017-07-19T13:53:31.611Z,2.13
2017-07-19T13:55:59.126Z,2.30
2017-07-19T13:58:26.639Z,1.90
2017-07-19T14:00:54.196Z,2.40
2017-07-19T14:03:21.702Z,2.03
2017-07-19T14:05:49.264Z,1.63
2017-07-19T14:08:16.772Z,2.40
2017-07-19T14:10:44.277Z,2.30
2017-07-19T14:13:11.826Z,2.27
2017-07-19T14:15:39.342Z,2.30
2017-07-19T14:18:06.903Z,5.27
2017-07-19T14:20:34.406Z,2.50
2017-07-19T14:23:01.919Z,2.30
2017-07-19T14:25:29.488Z,2.00
2017-07-19T14:27:56.998Z,2.07
2017-07-19T14:30:24.501Z,2.30
2017-07-19T14:32:52.052Z,1.93
2017-07-19T14:35:19.566Z,2.20
2017-07-19T14:37:47.069Z,2.20
2017-07-19T14:40:14.625Z,2.30
2017-07-19T14:42:42.142Z,2.43
2017-07-19T14:45:09.650Z,2.47
2017-07-19T14:47:37.216Z,2.23
2017-07-19T14:50:04.729Z,2.73
2017-07-19T14:52:32.237Z,3.70
2017-07-19T14:54:59.829Z,2.30
2017-07-19T14:57:27.337Z,2.80
2017-07-19T14:59:54.950Z,2.10
2017-07-19T15:02:22.500Z,2.97
2017-07-19T15:04:50.018Z,2.17
2017-07-19T15:07:17.537Z,2.10
2017-07-19T15:09:45.073Z,2.13
2017-07-19T15:12:12.578Z,2.43
2017-07-19T15:14:40.086Z,2.23
2017-07-19T15:17:07.633Z,2.03
2017-07-19T15:19:35.141Z,2.40
2017-07-19T15:22:02.661Z,2.53
2017-07-19T15:24:30.232Z,3.20
2017-07-19T15:26:57.736Z,2.60
2017-07-19T15:29:25.243Z,1.87
2017-07-19T15:31:52.805Z,3.00
2017-07-19T15:34:20.322Z,2.33
2017-07-19T15:36:47.836Z,2.70
2017-07-19T15:39:15.396Z,5.20
2017-07-19T15:41:42.905Z,2.60
2017-07-19T15:44:10.420Z,3.83
2017-07-19T15:46:37.958Z,2.70
2017-07-19T15:49:05.465Z,2.50
2017-07-19T15:51:33.093Z,2.30
2017-07-19T15:54:00.609Z,2.60
2017-07-19T15:56:28.152Z,3.83
2017-07-19T15:58:55.661Z,1.97
2017-07-19T16:01:23.170Z,2.00
2017-07-19T16:03:50.710Z,2.20
2017-07-19T16:06:18.248Z,2.30
2017-07-19T16:08:45.783Z,2.40
2017-07-19T16:11:13.292Z,2.30
2017-07-19T16:13:40.858Z,2.90
2017-07-19T16:16:08.376Z,2.03
2017-07-19T16:18:35.917Z,1.97
2017-07-19T16:21:03.437Z,2.57
2017-07-19T16:23:31.386Z,2.53
2017-07-19T16:25:58.896Z,2.27
2017-07-19T16:28:26.446Z,2.40
2017-07-19T16:30:53.959Z,4.03
2017-07-19T16:33:21.530Z,2.60
2017-07-19T16:35:49.045Z,2.50
2017-07-19T16:38:16.588Z,6.00
2017-07-19T16:40:44.188Z,6.60
2017-07-19T16:43:11.736Z,4.50
2017-07-19T16:45:39.248Z,4.77
2017-07-19T16:48:06.760Z,3.90
2017-07-19T16:50:34.326Z,2.90
2017-07-19T16:53:01.829Z,2.00
2017-07-19T16:55:29.368Z,3.27
2017-07-19T16:57:56.878Z,8.27
2017-07-19T17:00:24.430Z,2.90
2017-07-19T17:02:51.940Z,5.70
2017-07-19T17:05:19.583Z,3.40
2017-07-19T17:07:47.106Z,2.80
2017-07-19T17:10:14.640Z,2.27
2017-07-19T17:12:42.145Z,2.50
2017-07-19T17:15:09.691Z,3.47
2017-07-19T17:17:37.199Z,9.17
2017-07-19T17:20:04.769Z,2.70
2017-07-19T17:22:32.287Z,5.87
2017-07-19T17:24:59.824Z,2.53
2017-07-19T17:27:27.344Z,5.20
2017-07-19T17:29:54.889Z,2.23
2017-07-19T17:32:22.402Z,2.20
2017-07-19T17:34:49.916Z,3.27
2017-07-19T17:37:17.456Z,6.27
2017-07-19T17:39:44.959Z,4.00
2017-07-19T17:42:12.501Z,9.03
2017-07-19T17:44:40.025Z,2.10
2017-07-19T17:47:07.581Z,2.80
2017-07-19T17:49:35.092Z,2.27
2017-07-19T17:52:02.630Z,3.17
2017-07-19T17:54:30.140Z,6.63
2017-07-19T17:56:57.677Z,5.57
2017-07-19T17:59:25.189Z,6.07
2017-07-19T18:01:52.733Z,2.13
2017-07-19T18:04:20.240Z,3.23
2017-07-19T18:06:47.794Z,2.73
2017-07-19T18:09:15.299Z,3.57
2017-07-19T18:11:42.849Z,2.20
2017-07-19T18:14:10.364Z,2.93
2017-07-19T18:16:37.868Z,2.10
2017-07-19T18:19:05.413Z,2.23
2017-07-19T18:21:32.923Z,2.50
2017-07-19T18:24:00.474Z,2.57
2017-07-19T18:26:28.038Z,2.47
2017-07-19T18:28:55.583Z,2.70
2017-07-19T18:31:23.097Z,2.70
2017-07-19T18:33:50.637Z,2.53
2017-07-19T18:36:18.147Z,1.93
2017-07-19T18:38:45.691Z,3.90
2017-07-19T18:41:13.205Z,4.13
2017-07-19T18:43:40.749Z,6.90
2017-07-19T18:46:08.310Z,3.10
2017-07-19T18:48:35.857Z,2.43
2017-07-19T18:51:03.366Z,5.20
2017-07-19T18:53:30.933Z,2.90
2017-07-19T18:55:58.445Z,2.70
2017-07-19T18:58:25.990Z,2.20
2017-07-19T19:00:53.563Z,2.73
2017-07-19T19:03:21.080Z,5.13
2017-07-19T19:05:48.616Z,3.30
2017-07-19T19:08:16.127Z,3.60
2017-07-19T19:10:43.679Z,1.87
2017-07-19T19:13:11.189Z,3.13
2017-07-19T19:15:38.730Z,2.10
2017-07-19T19:18:06.241Z,2.40
2017-07-19T19:20:33.787Z,2.50
2017-07-19T19:23:01.296Z,2.20
2017-07-19T19:25:28.851Z,2.30
2017-07-19T19:27:56.362Z,5.83
2017-07-19T19:30:23.920Z,8.03
2017-07-19T19:32:51.431Z,7.37
2017-07-19T19:35:18.975Z,8.03
2017-07-19T19:37:46.489Z,7.57
2017-07-19T19:40:14.033Z,16.50
2017-07-19T19:42:41.539Z,13.00
2017-07-19T19:45:09.094Z,12.47
2017-07-19T19:47:36.611Z,10.13
2017-07-19T19:50:04.115Z,36.33
2017-07-19T19:52:31.671Z,17.20
2017-07-19T19:54:59.193Z,16.90
2017-07-19T19:57:26.748Z,11.20
2017-07-19T19:59:54.255Z,11.17
2017-07-19T20:02:21.808Z,13.00
2017-07-19T20:04:49.325Z,15.77
2017-07-19T20:07:16.876Z,17.53
2017-07-19T20:09:44.392Z,19.33
2017-07-19T20:12:11.934Z,10.00
2017-07-19T20:14:39.447Z,9.63
2017-07-19T20:17:06.992Z,14.50
2017-07-19T20:19:34.509Z,11.07
2017-07-19T20:22:02.064Z,14.33
2017-07-19T20:24:29.682Z,48.17
2017-07-19T20:26:57.231Z,24.20
2017-07-19T20:29:24.749Z,16.30
2017-07-19T20:31:52.297Z,28.10
2017-07-19T20:34:19.887Z,16.13
2017-07-19T20:36:47.412Z,16.70
2017-07-19T20:39:14.963Z,19.03
2017-07-19T20:41:42.481Z,20.03
2017-07-19T20:44:10.025Z,19.03
2017-07-19T20:46:37.541Z,12.37
2017-07-19T20:49:05.088Z,14.20
2017-07-19T20:51:32.659Z,10.63
2017-07-19T20:54:00.209Z,14.63
2017-07-19T20:56:27.735Z,11.40
2017-07-19T20:58:55.325Z,12.15
2017-07-19T21:01:22.844Z,16.90
2017-07-19T21:03:50.392Z,12.10
2017-07-19T21:06:17.901Z,22.77
2017-07-19T21:08:45.921Z,14.13
2017-07-19T21:11:13.479Z,6.87
2017-07-19T21:13:41.066Z,12.90
2017-07-19T21:16:08.623Z,15.10
2017-07-19T21:18:36.623Z,16.30
2017-07-19T21:21:04.188Z,14.33
2017-07-19T21:23:32.425Z,10.17
2017-07-19T21:25:59.974Z,17.47
2017-07-19T21:28:27.527Z,11.73
2017-07-19T21:30:55.115Z,11.43
2017-07-19T21:33:22.671Z,14.37
2017-07-19T21:35:50.266Z,19.00
2017-07-19T21:38:17.821Z,24.60
2017-07-19T21:40:45.407Z,14.20
2017-07-19T21:43:13.096Z,12.10
2017-07-19T21:45:40.689Z,18.53
2017-07-19T21:48:08.247Z,17.40
2017-07-19T21:50:35.851Z,12.40
2017-07-19T21:53:03.401Z,12.30
2017-07-19T21:55:31.030Z,16.27
2017-07-19T21:57:58.586Z,17.37
2017-07-19T22:00:26.179Z,10.60
2017-07-19T22:02:53.736Z,6.93
2017-07-19T22:05:21.316Z,17.20
2017-07-19T22:07:48.871Z,13.30
2017-07-19T22:10:16.450Z,9.50
2017-07-19T22:12:43.999Z,13.63
2017-07-19T22:15:11.605Z,14.10
2017-07-19T22:17:39.159Z,11.07
2017-07-19T22:20:06.718Z,15.30
2017-07-19T22:22:34.310Z,22.07
2017-07-19T22:25:01.877Z,16.10
2017-07-19T22:27:29.455Z,14.63
2017-07-19T22:29:57.011Z,16.53
2017-07-19T22:32:24.590Z,20.77
2017-07-19T22:34:52.147Z,12.23
2017-07-19T22:37:19.731Z,12.00
2017-07-19T22:39:47.298Z,12.27
2017-07-19T22:42:14.877Z,13.00
2017-07-19T22:44:42.431Z,11.63
2017-07-19T22:47:10.013Z,11.37
2017-07-19T22:49:37.569Z,18.80
2017-07-19T22:52:05.176Z,14.23
2017-07-19T22:54:32.735Z,22.67
2017-07-19T22:57:00.413Z,12.97
2017-07-19T22:59:27.979Z,7.33
2017-07-19T23:01:55.590Z,26.43
2017-07-19T23:04:23.218Z,11.83
2017-07-19T23:06:50.780Z,12.50
2017-07-19T23:09:18.371Z,16.60
2017-07-19T23:11:45.922Z,12.80
2017-07-19T23:14:13.508Z,10.53
2017-07-19T23:16:41.077Z,7.37
2017-07-19T23:19:08.665Z,9.10
2017-07-19T23:21:36.319Z,14.40
2017-07-19T23:24:03.919Z,12.53
2017-07-19T23:26:31.475Z,16.87
2017-07-19T23:28:59.072Z,17.67
2017-07-19T23:31:26.686Z,14.30
2017-07-19T23:33:54.327Z,13.27
2017-07-19T23:36:21.887Z,18.40
2017-07-19T23:38:49.490Z,10.90
2017-07-19T23:41:17.603Z,10.17
2017-07-19T23:43:45.186Z,13.07
2017-07-19T23:46:12.739Z,9.13
2017-07-19T23:48:40.329Z,13.93
2017-07-19T23:51:07.881Z,12.40
2017-07-19T23:53:35.465Z,6.57
2017-07-19T23:56:03.019Z,23.10
2017-07-19T23:58:30.581Z,8.00
